createdAt,value
2023-02-02T00:01:49.950Z,5.97
2023-02-02T00:04:28.892Z,5.78
2023-02-02T00:06:59.745Z,7.95
2023-02-02T00:09:30.396Z,5.85
2023-02-02T00:11:59.047Z,6.05
2023-02-02T00:14:26.807Z,5.93
2023-02-02T00:16:56.104Z,6.07
2023-02-02T00:19:30.349Z,6.13
2023-02-02T00:21:57.922Z,5.60
2023-02-02T00:24:25.566Z,4.88
2023-02-02T00:26:58.490Z,4.95
2023-02-02T00:29:31.021Z,4.82
2023-02-02T00:34:25.911Z,4.95
2023-02-02T00:36:53.470Z,5.15
2023-02-02T00:39:23.165Z,4.82
2023-02-02T00:41:50.472Z,4.72
2023-02-02T00:44:38.018Z,4.68
2023-02-02T00:47:05.483Z,4.78
2023-02-02T00:49:32.949Z,4.63
2023-02-02T00:52:00.628Z,4.55
2023-02-02T00:54:28.405Z,4.80
2023-02-02T00:56:55.734Z,5.40
2023-02-02T00:59:22.942Z,4.82
2023-02-02T01:01:50.384Z,5.18
2023-02-02T01:04:17.734Z,4.78
2023-02-02T01:06:45.084Z,4.43
2023-02-02T01:09:13.499Z,4.57
2023-02-02T01:11:40.884Z,4.63
2023-02-02T01:14:08.628Z,4.60
2023-02-02T01:16:35.926Z,3.92
2023-02-02T01:19:03.395Z,4.65
2023-02-02T01:21:30.764Z,4.47
2023-02-02T01:23:58.208Z,4.32
2023-02-02T01:26:25.756Z,4.60
2023-02-02T01:28:53.024Z,3.78
2023-02-02T01:31:21.555Z,3.92
2023-02-02T01:33:50.141Z,3.70
2023-02-02T01:36:20.376Z,3.17
2023-02-02T01:38:48.689Z,3.58
2023-02-02T01:41:22.373Z,3.70
2023-02-02T01:44:00.483Z,3.58
2023-02-02T01:46:32.106Z,3.60
2023-02-02T01:49:12.806Z,3.30
2023-02-02T01:51:54.039Z,3.30
2023-02-02T01:54:38.737Z,3.72
2023-02-02T01:57:31.356Z,3.50
2023-02-02T02:00:01.991Z,4.10
2023-02-02T02:02:32.215Z,3.90
2023-02-02T02:05:02.315Z,4.18
2023-02-02T02:07:30.118Z,4.25
2023-02-02T02:09:57.428Z,4.15
2023-02-02T02:12:24.786Z,3.65
2023-02-02T02:15:11.098Z,4.20
2023-02-02T02:18:50.036Z,3.67
2023-02-02T02:22:13.844Z,3.50
2023-02-02T02:25:21.056Z,3.63
2023-02-02T02:28:13.028Z,3.50
2023-02-02T02:30:53.169Z,3.42
2023-02-02T02:33:58.425Z,3.33
2023-02-02T02:36:28.766Z,3.17
2023-02-02T02:39:05.461Z,3.22
2023-02-02T02:41:39.289Z,3.17
2023-02-02T02:44:11.398Z,3.10
2023-02-02T02:46:39.252Z,3.35
2023-02-02T02:49:10.115Z,3.53
2023-02-02T02:51:49.648Z,3.22
2023-02-02T02:54:31.257Z,2.88
2023-02-02T02:57:18.895Z,3.53
2023-02-02T03:00:23.374Z,3.15
2023-02-02T03:03:29.566Z,2.97
2023-02-02T03:06:06.621Z,2.97
2023-02-02T03:08:53.772Z,2.70
2023-02-02T03:11:21.858Z,2.78
2023-02-02T03:13:51.578Z,2.80
2023-02-02T03:16:19.216Z,2.17
2023-02-02T03:18:46.587Z,2.20
2023-02-02T03:21:13.934Z,2.55
2023-02-02T03:23:41.222Z,2.25
2023-02-02T03:26:08.768Z,2.47
2023-02-02T03:28:40.140Z,3.22
2023-02-02T03:31:09.318Z,2.47
2023-02-02T03:33:38.181Z,2.58
2023-02-02T03:36:06.453Z,2.88
2023-02-02T03:38:33.676Z,3.00
2023-02-02T03:41:01.179Z,2.75
2023-02-02T03:43:28.534Z,2.55
2023-02-02T03:46:01.088Z,2.92
2023-02-02T03:48:28.692Z,2.90
2023-02-02T03:50:56.023Z,2.53
2023-02-02T03:53:23.997Z,2.90
2023-02-02T03:55:51.300Z,2.97
2023-02-02T03:58:18.634Z,4.28
2023-02-02T04:00:45.944Z,4.25
2023-02-02T04:03:13.138Z,4.30
2023-02-02T04:05:40.509Z,4.20
2023-02-02T04:08:07.789Z,4.18
2023-02-02T04:10:35.046Z,3.28
2023-02-02T04:13:02.415Z,2.47
2023-02-02T04:15:29.681Z,3.15
2023-02-02T04:17:57.228Z,2.97
2023-02-02T04:20:24.528Z,3.47
2023-02-02T04:22:51.842Z,3.25
2023-02-02T04:25:19.079Z,3.95
2023-02-02T04:27:46.407Z,4.00
2023-02-02T04:30:13.654Z,3.90
2023-02-02T04:32:41.068Z,4.00
2023-02-02T04:35:08.843Z,4.88
2023-02-02T04:37:36.227Z,5.70
2023-02-02T04:40:03.840Z,5.25
2023-02-02T04:42:32.956Z,3.15
2023-02-02T04:45:00.248Z,3.58
2023-02-02T04:47:27.560Z,2.70
2023-02-02T04:49:54.835Z,2.92
2023-02-02T04:52:22.100Z,3.28
2023-02-02T04:54:49.460Z,2.92
2023-02-02T04:57:17.864Z,2.97
2023-02-02T04:59:45.507Z,3.05
2023-02-02T05:02:12.783Z,2.60
2023-02-02T05:04:40.231Z,3.40
2023-02-02T05:07:07.510Z,3.05
2023-02-02T05:09:35.224Z,3.00
2023-02-02T05:12:02.449Z,3.22
2023-02-02T05:14:29.769Z,2.70
2023-02-02T05:16:57.032Z,3.10
2023-02-02T05:19:24.364Z,3.33
2023-02-02T05:21:51.616Z,3.70
2023-02-02T05:24:19.008Z,3.00
2023-02-02T05:26:46.681Z,3.83
2023-02-02T05:29:14.042Z,3.60
2023-02-02T05:31:41.339Z,3.88
2023-02-02T05:34:11.622Z,3.85
2023-02-02T05:36:39.014Z,3.85
2023-02-02T05:39:06.408Z,3.20
2023-02-02T05:41:33.811Z,3.60
2023-02-02T05:44:01.344Z,3.88
2023-02-02T05:46:29.098Z,3.83
2023-02-02T05:48:59.018Z,4.60
2023-02-02T05:51:48.474Z,3.80
2023-02-02T05:54:20.494Z,4.55
2023-02-02T05:56:50.163Z,4.45
2023-02-02T05:59:18.662Z,5.13
2023-02-02T06:01:46.828Z,5.38
2023-02-02T06:04:15.138Z,4.97
2023-02-02T06:06:42.626Z,5.28
2023-02-02T06:09:10.690Z,5.88
2023-02-02T06:11:39.617Z,5.55
2023-02-02T06:14:07.893Z,5.03
2023-02-02T06:16:35.437Z,5.00
2023-02-02T06:19:03.217Z,6.50
2023-02-02T06:21:33.529Z,6.80
2023-02-02T06:24:02.305Z,6.28
2023-02-02T06:26:29.836Z,6.60
2023-02-02T06:28:57.352Z,6.43
2023-02-02T06:31:24.746Z,6.00
2023-02-02T06:33:57.108Z,6.50
2023-02-02T06:36:26.165Z,6.82
2023-02-02T06:38:56.191Z,6.90
2023-02-02T06:41:24.770Z,7.20
2023-02-02T06:43:52.469Z,7.15
2023-02-02T06:46:19.870Z,6.40
2023-02-02T06:48:47.145Z,6.82
2023-02-02T06:51:14.804Z,7.45
2023-02-02T06:53:42.161Z,7.30
2023-02-02T06:56:13.043Z,6.93
2023-02-02T06:58:40.800Z,7.28
2023-02-02T07:01:14.293Z,7.20
2023-02-02T07:03:42.093Z,8.18
2023-02-02T07:06:12.630Z,7.28
2023-02-02T07:08:40.200Z,8.48
2023-02-02T07:11:14.485Z,7.75
2023-02-02T07:13:44.027Z,6.70
2023-02-02T07:16:13.178Z,7.20
2023-02-02T07:18:40.809Z,8.48
2023-02-02T07:21:08.087Z,8.55
2023-02-02T07:23:35.613Z,8.73
2023-02-02T07:26:07.258Z,8.48
2023-02-02T07:28:35.369Z,8.10
2023-02-02T07:31:12.928Z,8.55
2023-02-02T07:33:42.296Z,8.30
2023-02-02T07:36:11.169Z,7.68
2023-02-02T07:38:39.045Z,8.32
2023-02-02T07:41:06.418Z,8.38
2023-02-02T07:43:34.689Z,7.45
2023-02-02T07:46:03.072Z,9.73
2023-02-02T07:48:31.138Z,7.53
2023-02-02T07:51:03.253Z,9.15
2023-02-02T07:53:30.948Z,11.02
2023-02-02T07:56:09.771Z,7.90
2023-02-02T07:58:40.545Z,7.60
2023-02-02T08:01:10.427Z,7.05
2023-02-02T08:03:38.540Z,7.72
2023-02-02T08:06:26.730Z,6.88
2023-02-02T08:08:54.463Z,5.95
2023-02-02T08:11:23.732Z,6.50
2023-02-02T08:13:54.169Z,6.13
2023-02-02T08:16:22.069Z,8.10
2023-02-02T08:18:50.148Z,6.65
2023-02-02T08:21:18.487Z,5.55
2023-02-02T08:23:46.727Z,5.38
2023-02-02T08:26:18.528Z,5.65
2023-02-02T08:28:49.405Z,18.88
2023-02-02T08:31:22.520Z,6.88
2023-02-02T08:33:50.479Z,18.95
2023-02-02T08:36:20.008Z,19.42
2023-02-02T08:38:47.481Z,33.97
2023-02-02T08:41:17.819Z,14.30
2023-02-02T08:43:45.452Z,6.38
2023-02-02T08:46:14.795Z,5.03
2023-02-02T08:48:42.484Z,5.25
2023-02-02T08:51:13.093Z,6.32
2023-02-02T08:53:40.436Z,6.10
2023-02-02T08:56:20.532Z,6.00
2023-02-02T08:58:51.379Z,4.28
2023-02-02T09:01:23.271Z,4.15
2023-02-02T09:03:54.927Z,5.68
2023-02-02T09:06:26.463Z,5.63
2023-02-02T09:08:53.894Z,5.75
2023-02-02T09:11:21.248Z,7.28
2023-02-02T09:13:50.142Z,5.15
2023-02-02T09:16:21.221Z,6.00
2023-02-02T09:18:48.707Z,5.05
2023-02-02T09:21:17.521Z,3.38
2023-02-02T09:23:45.775Z,2.78
2023-02-02T09:26:14.438Z,3.45
2023-02-02T09:28:44.406Z,5.45
2023-02-02T09:31:12.479Z,3.00
2023-02-02T09:33:40.695Z,2.95
2023-02-02T09:36:20.652Z,3.13
2023-02-02T09:38:48.937Z,2.70
2023-02-02T09:41:34.212Z,3.05
2023-02-02T09:44:16.974Z,3.28
2023-02-02T09:46:56.340Z,2.88
2023-02-02T09:49:35.508Z,2.90
2023-02-02T09:52:12.444Z,5.18
2023-02-02T09:54:46.382Z,4.22
2023-02-02T09:57:19.720Z,4.28
2023-02-02T09:59:50.470Z,4.90
2023-02-02T10:02:20.238Z,4.80
2023-02-02T10:04:52.854Z,5.90
2023-02-02T10:07:34.927Z,4.40
2023-02-02T10:10:17.119Z,4.80
2023-02-02T10:12:56.567Z,3.53
2023-02-02T10:15:44.647Z,6.60
2023-02-02T10:18:43.046Z,5.95
2023-02-02T10:21:34.934Z,5.43
2023-02-02T10:24:03.688Z,5.17
2023-02-02T10:26:47.034Z,4.65
2023-02-02T10:29:23.820Z,4.60
2023-02-02T10:32:36.558Z,4.18
2023-02-02T10:35:14.621Z,4.10
2023-02-02T10:37:58.805Z,3.47
2023-02-02T10:40:29.005Z,4.22
2023-02-02T10:43:36.599Z,3.08
2023-02-02T10:46:05.599Z,4.30
2023-02-02T10:48:38.448Z,5.70
2023-02-02T10:51:18.015Z,3.97
2023-02-02T10:53:53.644Z,4.30
2023-02-02T10:56:36.552Z,4.05
2023-02-02T10:59:11.837Z,4.00
2023-02-02T11:01:39.331Z,4.30
2023-02-02T11:04:25.411Z,4.13
2023-02-02T11:06:52.816Z,3.70
2023-02-02T11:09:30.727Z,3.97
2023-02-02T11:12:20.921Z,3.67
2023-02-02T11:15:08.235Z,3.70
2023-02-02T11:17:46.545Z,4.20
2023-02-02T11:20:38.055Z,5.00
2023-02-02T11:23:07.831Z,3.58
2023-02-02T11:25:37.992Z,3.47
2023-02-02T11:28:21.053Z,3.80
2023-02-02T11:30:52.542Z,3.85
2023-02-02T11:33:30.534Z,3.90
2023-02-02T11:36:04.315Z,3.58
2023-02-02T11:38:32.518Z,3.47
2023-02-02T11:41:07.158Z,4.22
2023-02-02T11:43:48.087Z,3.17
2023-02-02T11:46:24.898Z,3.65
2023-02-02T11:49:14.488Z,3.28
2023-02-02T11:51:44.318Z,3.20
2023-02-02T11:54:29.615Z,4.72
2023-02-02T11:57:00.389Z,3.00
2023-02-02T11:59:33.763Z,4.28
2023-02-02T12:02:24.479Z,6.45
2023-02-02T12:05:14.725Z,12.10
2023-02-02T12:07:44.747Z,5.00
2023-02-02T12:10:17.123Z,4.28
2023-02-02T12:13:14.077Z,9.77
2023-02-02T12:16:00.812Z,6.65
2023-02-02T12:19:04.957Z,15.30
2023-02-02T12:21:38.753Z,17.23
2023-02-02T12:24:31.627Z,8.10
2023-02-02T12:27:54.160Z,14.15
2023-02-02T12:30:24.913Z,5.70
2023-02-02T12:33:15.595Z,37.47
2023-02-02T12:36:22.172Z,6.15
2023-02-02T12:39:30.831Z,16.42
2023-02-02T12:42:19.518Z,2.53
2023-02-02T12:44:46.832Z,13.75
2023-02-02T12:47:14.668Z,54.78
2023-02-02T12:49:48.273Z,11.68
2023-02-02T12:52:40.987Z,57.80
2023-02-02T12:55:28.141Z,8.82
2023-02-02T12:58:17.573Z,2.90
2023-02-02T13:00:53.615Z,2.38
2023-02-02T13:03:53.113Z,3.60
2023-02-02T13:06:50.348Z,3.78
2023-02-02T13:09:23.887Z,2.53
2023-02-02T13:11:59.039Z,9.50
2023-02-02T13:14:31.680Z,3.17
2023-02-02T13:17:09.996Z,9.27
2023-02-02T13:19:49.076Z,3.42
2023-02-02T13:22:38.281Z,6.32
2023-02-02T13:25:11.010Z,18.30
2023-02-02T13:27:39.978Z,4.60
2023-02-02T13:30:30.119Z,121.43
2023-02-02T13:33:11.727Z,23.55
2023-02-02T13:35:50.275Z,2.33
2023-02-02T13:38:39.313Z,3.22
2023-02-02T13:41:10.098Z,9.60
2023-02-02T13:43:43.091Z,5.65
2023-02-02T13:46:31.842Z,4.47
2023-02-02T13:49:10.322Z,4.57
2023-02-02T13:51:37.676Z,2.60
2023-02-02T13:54:37.738Z,1.90
2023-02-02T13:57:13.813Z,1.83
2023-02-02T14:00:19.325Z,39.92
2023-02-02T14:02:48.102Z,2.80
2023-02-02T14:05:22.714Z,1.73
2023-02-02T14:08:04.542Z,2.90
2023-02-02T14:10:38.187Z,14.35
2023-02-02T14:13:54.991Z,14.73
2023-02-02T14:16:44.549Z,8.10
2023-02-02T14:19:17.402Z,79.50
2023-02-02T14:21:44.664Z,24.13
2023-02-02T14:24:26.650Z,4.30
2023-02-02T14:27:01.932Z,4.13
2023-02-02T14:29:31.296Z,4.55
2023-02-02T14:32:41.377Z,6.00
2023-02-02T14:35:08.617Z,2.97
2023-02-02T14:37:51.266Z,2.25
2023-02-02T14:40:42.043Z,2.30
2023-02-02T14:43:45.132Z,1.98
2023-02-02T14:46:15.479Z,2.20
2023-02-02T14:48:47.391Z,2.17
2023-02-02T14:51:21.456Z,2.22
2023-02-02T14:54:02.003Z,1.73
2023-02-02T14:56:51.189Z,1.98
2023-02-02T14:59:43.074Z,1.67
2023-02-02T15:02:18.711Z,1.88
2023-02-02T15:04:49.199Z,1.83
2023-02-02T15:07:37.861Z,1.70
2023-02-02T15:10:05.583Z,1.77
2023-02-02T15:12:45.193Z,1.85
2023-02-02T15:15:28.220Z,1.40
2023-02-02T15:18:08.174Z,1.60
2023-02-02T15:20:45.973Z,2.25
2023-02-02T15:23:31.794Z,2.40
2023-02-02T15:26:26.059Z,2.20
2023-02-02T15:29:19.533Z,1.98
2023-02-02T15:31:52.342Z,1.70
2023-02-02T15:34:37.880Z,1.95
2023-02-02T15:37:08.308Z,2.40
2023-02-02T15:39:41.945Z,2.58
2023-02-02T15:42:36.557Z,6.40
2023-02-02T15:45:04.798Z,2.40
2023-02-02T15:47:36.516Z,4.35
2023-02-02T15:50:17.991Z,3.30
2023-02-02T15:52:50.757Z,2.10
2023-02-02T15:55:35.518Z,3.10
2023-02-02T15:58:03.982Z,2.90
2023-02-02T16:00:38.187Z,3.53
2023-02-02T16:03:15.229Z,2.80
2023-02-02T16:05:47.736Z,2.50
2023-02-02T16:08:28.446Z,2.40
2023-02-02T16:11:09.656Z,2.03
2023-02-02T16:13:38.795Z,1.92
2023-02-02T16:16:21.737Z,2.22
2023-02-02T16:19:01.957Z,2.45
2023-02-02T16:21:31.065Z,2.72
2023-02-02T16:23:59.055Z,2.90
2023-02-02T16:26:49.144Z,2.30
2023-02-02T16:29:18.564Z,3.10
2023-02-02T16:31:50.081Z,2.88
2023-02-02T16:34:40.351Z,4.20
2023-02-02T16:37:14.835Z,4.22
2023-02-02T16:39:42.897Z,2.65
2023-02-02T16:42:21.173Z,2.85
2023-02-02T16:44:48.851Z,2.95
2023-02-02T16:47:28.269Z,3.40
2023-02-02T16:50:07.885Z,4.32
2023-02-02T16:53:01.052Z,14.02
2023-02-02T16:55:47.782Z,4.68
2023-02-02T16:58:21.072Z,46.15
2023-02-02T17:01:13.552Z,16.77
2023-02-02T17:03:49.525Z,5.47
2023-02-02T17:06:25.380Z,3.60
2023-02-02T17:08:53.982Z,7.45
2023-02-02T17:11:31.109Z,196.85
2023-02-02T17:13:58.575Z,78.90
2023-02-02T17:16:25.978Z,15.27
2023-02-02T17:18:53.385Z,9.60
2023-02-02T17:21:24.502Z,11.43
2023-02-02T17:23:54.639Z,55.75
2023-02-02T17:26:22.192Z,34.55
2023-02-02T17:28:54.358Z,11.50
2023-02-02T17:31:21.674Z,42.50
2023-02-02T17:33:49.088Z,14.48
2023-02-02T17:36:16.390Z,15.25
2023-02-02T17:38:43.795Z,10.27
2023-02-02T17:41:14.370Z,8.35
2023-02-02T17:43:43.518Z,8.20
2023-02-02T17:46:13.502Z,7.53
2023-02-02T17:48:41.024Z,9.50
2023-02-02T17:51:16.225Z,7.60
2023-02-02T17:53:44.884Z,9.60
2023-02-02T17:56:12.222Z,11.38
2023-02-02T17:58:39.545Z,15.80
2023-02-02T18:01:07.393Z,19.35
2023-02-02T18:03:37.590Z,20.08
2023-02-02T18:06:05.207Z,28.33
2023-02-02T18:08:33.649Z,11.82
2023-02-02T18:11:01.151Z,8.65
2023-02-02T18:13:29.199Z,9.50
2023-02-02T18:15:56.944Z,9.00
2023-02-02T18:18:24.251Z,8.13
2023-02-02T18:20:51.954Z,11.82
2023-02-02T18:23:20.338Z,11.13
2023-02-02T18:25:47.719Z,13.85
2023-02-02T18:28:17.783Z,14.52
2023-02-02T18:30:47.058Z,15.48
2023-02-02T18:33:17.599Z,17.15
2023-02-02T18:35:46.152Z,21.13
2023-02-02T18:38:14.990Z,17.60
2023-02-02T18:40:43.120Z,15.32
2023-02-02T18:43:10.566Z,19.98
2023-02-02T18:45:37.982Z,31.15
2023-02-02T18:48:05.403Z,31.88
2023-02-02T18:50:32.771Z,29.55
2023-02-02T18:53:00.028Z,26.98
2023-02-02T18:55:28.928Z,25.20
2023-02-02T18:57:56.402Z,20.50
2023-02-02T19:00:23.851Z,34.80
2023-02-02T19:02:51.329Z,20.45
2023-02-02T19:05:37.742Z,22.42
2023-02-02T19:08:06.009Z,38.72
2023-02-02T19:10:33.627Z,83.93
2023-02-02T19:13:14.047Z,96.45
2023-02-02T19:15:42.864Z,126.70
2023-02-02T19:18:19.677Z,70.70
2023-02-02T19:20:49.432Z,159.32
2023-02-02T19:23:19.420Z,306.70
2023-02-02T19:25:51.354Z,116.18
2023-02-02T19:28:29.857Z,91.72
2023-02-02T19:30:59.778Z,96.05
2023-02-02T19:33:48.602Z,446.83
2023-02-02T19:36:21.649Z,93.95
2023-02-02T19:39:05.082Z,47.75
2023-02-02T19:41:32.765Z,68.18
2023-02-02T19:44:06.656Z,112.63
2023-02-02T19:46:41.280Z,89.53
2023-02-02T19:49:19.145Z,57.35
2023-02-02T19:51:56.947Z,80.03
2023-02-02T19:54:48.725Z,58.40
2023-02-02T19:57:36.368Z,79.63
2023-02-02T20:00:27.154Z,79.05
2023-02-02T20:03:05.048Z,66.57
2023-02-02T20:05:39.531Z,166.50
2023-02-02T20:08:27.329Z,204.82
2023-02-02T20:10:58.415Z,126.38
2023-02-02T20:13:43.945Z,304.73
2023-02-02T20:16:23.339Z,510.50
2023-02-02T20:18:56.093Z,316.38
2023-02-02T20:21:41.548Z,577.20
2023-02-02T20:24:37.188Z,370.60
2023-02-02T20:27:22.965Z,112.78
2023-02-02T20:29:52.470Z,37.22
2023-02-02T20:32:21.878Z,29.60
2023-02-02T20:34:50.784Z,42.42
2023-02-02T20:37:30.439Z,213.00
2023-02-02T20:40:04.585Z,90.60
2023-02-02T20:42:32.081Z,74.88
2023-02-02T20:44:59.559Z,54.40
2023-02-02T20:47:27.286Z,35.60
2023-02-02T20:49:54.706Z,32.70
2023-02-02T20:52:23.760Z,33.03
2023-02-02T20:54:53.635Z,21.92
2023-02-02T20:57:21.142Z,32.40
2023-02-02T20:59:49.805Z,112.60
2023-02-02T21:02:21.270Z,88.22
2023-02-02T21:04:49.934Z,27.75
2023-02-02T21:07:19.193Z,20.00
2023-02-02T21:09:48.906Z,21.33
2023-02-02T21:12:18.534Z,18.77
2023-02-02T21:14:45.866Z,16.67
2023-02-02T21:17:15.699Z,21.60
2023-02-02T21:19:47.339Z,25.58
2023-02-02T21:22:18.197Z,22.00
2023-02-02T21:24:47.707Z,23.67
2023-02-02T21:27:15.136Z,29.45
2023-02-02T21:29:42.550Z,34.63
2023-02-02T21:32:10.016Z,45.88
2023-02-02T21:34:37.984Z,42.90
2023-02-02T21:37:14.041Z,34.53
2023-02-02T21:39:48.374Z,36.70
2023-02-02T21:42:21.806Z,36.38
2023-02-02T21:44:53.932Z,30.10
2023-02-02T21:47:33.877Z,21.20
2023-02-02T21:50:24.975Z,28.33
2023-02-02T21:53:14.681Z,20.17
2023-02-02T21:55:42.123Z,15.45
2023-02-02T21:58:38.652Z,12.35
2023-02-02T22:01:29.140Z,14.98
2023-02-02T22:03:56.517Z,13.48
2023-02-02T22:06:26.799Z,13.10
2023-02-02T22:09:02.142Z,13.02
2023-02-02T22:11:36.002Z,11.80
2023-02-02T22:14:32.141Z,14.88
2023-02-02T22:16:59.710Z,17.13
2023-02-02T22:19:30.909Z,14.35
2023-02-02T22:22:23.966Z,15.40
2023-02-02T22:25:19.978Z,14.00
2023-02-02T22:27:54.167Z,15.70
2023-02-02T22:30:29.104Z,15.00
2023-02-02T22:32:58.667Z,16.98
2023-02-02T22:35:26.018Z,24.17
2023-02-02T22:37:53.321Z,18.58
2023-02-02T22:40:24.263Z,10.90
2023-02-02T22:42:54.059Z,11.38
2023-02-02T22:45:21.564Z,10.85
2023-02-02T22:47:49.514Z,9.57
2023-02-02T22:50:22.919Z,11.38
2023-02-02T22:52:50.724Z,10.15
2023-02-02T22:55:18.968Z,10.15
2023-02-02T22:57:46.256Z,13.30
2023-02-02T23:00:22.427Z,10.88
2023-02-02T23:02:50.389Z,7.22
2023-02-02T23:05:20.996Z,6.88
2023-02-02T23:07:56.644Z,6.55
2023-02-02T23:10:35.330Z,6.40
2023-02-02T23:13:08.880Z,7.30
2023-02-02T23:15:36.659Z,6.85
2023-02-02T23:18:04.643Z,7.25
2023-02-02T23:20:34.931Z,6.72
2023-02-02T23:23:02.292Z,11.43
2023-02-02T23:25:34.202Z,11.48
2023-02-02T23:28:01.760Z,7.93
2023-02-02T23:30:29.279Z,7.15
2023-02-02T23:32:56.885Z,5.57
2023-02-02T23:35:24.099Z,5.93
2023-02-02T23:37:51.408Z,7.05
2023-02-02T23:40:18.932Z,5.50
2023-02-02T23:42:46.229Z,5.55
2023-02-02T23:45:16.130Z,5.10
2023-02-02T23:47:43.895Z,5.25
2023-02-02T23:50:11.871Z,5.30
2023-02-02T23:52:39.594Z,5.82
2023-02-02T23:55:08.113Z,6.07
2023-02-02T23:57:36.734Z,5.75
